Data for 12/27/2017

Time Sea-Level Adjusted Pressure Absolute Pressure Temperature Relative Humidity Dew Point   
(mb) (inHg) (mb) (inHg) (C) (F) (%) (C) (F)
00:05 1019 30.09 849 25.07 -13.4 8 79 -16.2 2.8
00:10 1019 30.09 849 25.07 -13.4 7.8 81 -16.1 3
00:15 1019 30.09 849 25.07 -13.3 8.1 82 -15.7 3.7
00:20 1019 30.09 849 25.07 -13 8.6 84 -15.2 4.7
00:25 1019 30.09 849 25.07 -12.5 9.6 84 -14.7 5.6
00:30 1019 30.09 849 25.07 -12 10.4 80 -14.7 5.5
00:35 1019 30.09 849 25.07 -12 10.4 76 -15.4 4.4
00:40 1019 30.09 849 25.07 -13 8.7 77 -16.2 2.8
00:45 1019 30.09 849 25.07 -14 6.8 80 -16.7 1.9
00:50 1019 30.09 848 25.04 -14.3 6.3 82 -16.8 1.8
00:55 1019 30.09 848 25.04 -14 6.7 84 -16.1 3
01:00 1019 30.09 848 25.04 -13.5 7.8 85 -15.4 4.2
01:05 1019 30.09 848 25.04 -12.9 8.9 86 -14.8 5.4
01:10 1019 30.09 848 25.04 -12.5 9.5 85 -14.5 5.9
01:15 1019 30.09 848 25.04 -12.1 10.2 84 -14.2 6.4
01:20 1019 30.09 848 25.04 -11.8 10.7 81 -14.4 6.1
01:25 1019 30.09 848 25.04 -12 10.3 82 -14.5 5.8
01:30 1019 30.09 848 25.04 -12 10.4 81 -14.6 5.8
01:35 1019 30.09 848 25.04 -12 10.5 80 -14.7 5.6
01:40 1019 30.09 848 25.04 -11.8 10.8 82 -14.4 6.2
01:45 1019 30.09 848 25.04 -11.6 11.2 81 -14.3 6.3
01:50 1019 30.09 848 25.04 -11.7 11 81 -14.2 6.4
01:55 1019 30.09 848 25.04 -11.4 11.4 80 -14.2 6.5
02:00 1019 30.09 848 25.04 -11.9 10.5 81 -14.5 5.9
02:05 1019 30.09 848 25.04 -11.9 10.5 81 -14.6 5.7
02:10 1019 30.09 848 25.04 -11.7 11 81 -14.3 6.3
02:15 1019 30.09 848 25.04 -11.2 11.8 79 -14.1 6.6
02:20 1019 30.09 848 25.04 -11 12.3 79 -14 6.8
02:25 1019 30.09 848 25.04 -10.9 12.4 78 -14 6.8
02:30 1019 30.09 848 25.04 -10.8 12.7 78 -13.9 7.1
02:35 1019 30.09 848 25.04 -10.7 12.8 78 -13.9 7.1
02:40 1019 30.09 848 25.04 -10.9 12.4 79 -13.9 7
02:45 1019 30.09 848 25.04 -11 12.2 79 -14 6.8
02:50 1019 30.09 848 25.04 -10.8 12.5 78 -14 6.9
02:55 1019 30.09 848 25.04 -10.9 12.5 78 -14 6.9
03:00 1019 30.09 848 25.04 -10.8 12.6 79 -13.8 7.1
03:05 1019 30.09 848 25.04 -10.6 13 79 -13.6 7.5
03:10 1019 30.09 848 25.04 -10.6 13 78 -13.7 7.3
03:15 1019 30.09 848 25.04 -10.6 12.9 78 -13.7 7.3
03:20 1019 30.09 848 25.04 -10.4 13.2 78 -13.6 7.5
03:25 1019 30.09 848 25.04 -10.4 13.2 78 -13.6 7.6
03:30 1019 30.09 848 25.04 -10.3 13.4 78 -13.4 7.8
03:35 1019 30.09 848 25.04 -10.2 13.7 77 -13.4 7.9
03:40 1019 30.09 848 25.04 -10.2 13.7 78 -13.4 8
03:45 1019 30.09 848 25.04 -10.1 13.7 78 -13.3 8.1
03:50 1019 30.09 848 25.04 -10.3 13.5 80 -13.2 8.3
03:55 1018 30.06 848 25.04 -10.7 12.7 80 -13.5 7.6
04:00 1018 30.06 847 25.01 -11 12.1 82 -13.6 7.6
04:05 1018 30.06 847 25.01 -11 12.2 81 -13.7 7.4
04:10 1018 30.06 847 25.01 -10.9 12.4 81 -13.5 7.6
04:15 1018 30.06 847 25.01 -10.9 12.3 81 -13.6 7.6
04:20 1018 30.06 847 25.01 -11.2 11.9 82 -13.6 7.4
04:25 1018 30.06 847 25.01 -11.1 12 82 -13.6 7.6
04:30 1018 30.06 847 25.01 -11.1 12 82 -13.6 7.5
04:35 1018 30.06 847 25.01 -10.9 12.4 83 -13.3 8
04:40 1018 30.06 847 25.01 -10.5 13.2 81 -13.2 8.3
04:45 1018 30.06 847 25.01 -10.2 13.7 81 -12.8 9
04:50 1018 30.06 847 25.01 -10 14.1 81 -12.7 9.2
04:55 1017 30.03 847 25.01 -10.3 13.5 81 -12.9 8.8
05:00 1017 30.03 847 25.01 -10.2 13.6 81 -12.8 8.9
05:05 1017 30.03 846 24.98 -10.2 13.6 81 -12.9 8.8
05:10 1017 30.03 846 24.98 -10.3 13.5 81 -12.9 8.8
05:15 1017 30.03 846 24.98 -10.2 13.7 81 -12.9 8.9
05:20 1017 30.03 846 24.98 -9.8 14.3 80 -12.7 9.1
05:25 1017 30.03 846 24.98 -9.6 14.7 79 -12.6 9.4
05:30 1017 30.03 847 25.01 -9.5 15 80 -12.3 9.9
05:35 1017 30.03 846 24.98 -9.1 15.7 78 -12.2 10.1
05:40 1017 30.03 846 24.98 -9 15.9 79 -12.1 10.3
05:45 1017 30.03 846 24.98 -9.1 15.6 80 -12 10.4
05:50 1017 30.03 846 24.98 -9.1 15.7 80 -12 10.4
05:55 1017 30.03 846 24.98 -8.8 16.1 78 -12 10.4
06:00 1017 30.03 846 24.98 -8.8 16.3 79 -11.7 10.9
06:05 1017 30.03 846 24.98 -8.5 16.6 78 -11.7 11
06:10 1017 30.03 846 24.98 -8.4 16.9 77 -11.7 11
06:15 1017 30.03 846 24.98 -8.4 17 78 -11.6 11.2
06:20 1017 30.03 846 24.98 -8.3 17 79 -11.4 11.5
06:25 1017 30.03 846 24.98 -8.3 17 79 -11.4 11.5
06:30 1017 30.03 846 24.98 -8.4 16.9 79 -11.4 11.4
06:35 1017 30.03 846 24.98 -8.6 16.6 80 -11.5 11.3
06:40 1017 30.03 846 24.98 -8.6 16.5 80 -11.5 11.2
06:45 1017 30.03 846 24.98 -8.4 16.8 79 -11.4 11.4
06:50 1017 30.03 846 24.98 -8.2 17.2 79 -11.2 11.8
06:55 1017 30.03 846 24.98 -8.3 17.1 80 -11.1 11.9
07:00 1017 30.03 846 24.98 -8.3 17.1 80 -11.1 12
07:05 1017 30.03 846 24.98 -8.1 17.4 79 -11 12.1
07:10 1017 30.03 846 24.98 -7.8 18 77 -11.2 11.9
07:15 1017 30.03 846 24.98 -7.7 18.2 76 -11.1 11.9
07:20 1017 30.03 846 24.98 -7.6 18.4 77 -11 12.2
07:25 1017 30.03 846 24.98 -7.4 18.7 76 -10.9 12.4
07:30 1017 30.03 847 25.01 -7.2 19 76 -10.8 12.6
07:35 1017 30.03 847 25.01 -7.3 18.9 76 -10.8 12.6
07:40 1018 30.06 847 25.01 -7.5 18.4 78 -10.8 12.5
07:45 1018 30.06 847 25.01 -7.7 18.1 77 -11.1 12
07:50 1018 30.06 847 25.01 -7.6 18.3 76 -11.1 12.1
07:55 1018 30.06 847 25.01 -7.7 18.2 77 -11.1 12.1
08:00 1018 30.06 847 25.01 -7.4 18.7 74 -11.3 11.6
08:05 1018 30.06 847 25.01 -7.3 18.9 72 -11.4 11.4
08:10 1018 30.06 847 25.01 -6.9 19.6 74 -10.7 12.7
08:15 1018 30.06 847 25.01 -7 19.4 77 -10.3 13.5
08:20 1017 30.03 847 25.01 -6.9 19.6 76 -10.5 13.2
08:25 1017 30.03 847 25.01 -6.8 19.8 76 -10.4 13.3
08:30 1017 30.03 847 25.01 -6.8 19.7 76 -10.3 13.4
08:35 1017 30.03 847 25.01 -6.7 20 73 -10.6 12.8
08:40 1017 30.03 847 25.01 -6.3 20.7 72 -10.5 13.1
08:45 1017 30.03 847 25.01 -6.2 20.8 74 -10.1 13.7
08:50 1017 30.03 847 25.01 -7.1 19.2 79 -10.1 13.8
08:55 1017 30.03 847 25.01 -7.9 17.7 81 -10.7 12.8
09:00 1017 30.03 847 25.01 -7.6 18.3 78 -10.8 12.6
09:05 1017 30.03 847 25.01 -7.4 18.6 77 -10.9 12.5
09:10 1017 30.03 847 25.01 -7.1 19.2 74 -11 12.2
09:15 1017 30.03 847 25.01 -6.8 19.8 73 -10.9 12.4
09:20 1017 30.03 847 25.01 -6.8 19.7 75 -10.5 13
09:25 1017 30.03 847 25.01 -7 19.3 74 -11 12.2
09:30 1017 30.03 847 25.01 -6.9 19.6 75 -10.5 13
09:35 1017 30.03 847 25.01 -7 19.4 74 -10.8 12.5
09:40 1018 30.06 847 25.01 -6.5 20.3 72 -10.7 12.7
09:45 1017 30.03 847 25.01 -5.7 21.7 68 -10.7 12.7
09:50 1017 30.03 847 25.01 -5.1 22.7 67 -10.4 13.2
09:55 1018 30.06 847 25.01 -4.7 23.5 65 -10.4 13.3
10:00 1018 30.06 847 25.01 -4.5 23.8 65 -10.2 13.7
10:05 1018 30.06 847 25.01 -4.5 24 64 -10.2 13.6
10:10 1018 30.06 847 25.01 -4.3 24.3 62 -10.5 13.2
10:15 1018 30.06 847 25.01 -4.1 24.7 63 -10.2 13.7
10:20 1018 30.06 847 25.01 -4 24.8 62 -10.2 13.7
10:25 1018 30.06 847 25.01 -3.9 24.9 66 -9.4 15.1
10:30 1018 30.06 847 25.01 -4 24.8 64 -9.8 14.4
10:35 1018 30.06 847 25.01 -3.8 25.1 64 -9.7 14.5
10:40 1018 30.06 847 25.01 -3.7 25.4 61 -10.1 13.8
10:45 1018 30.06 847 25.01 -3.3 26 60 -10.1 13.9
10:50 1018 30.06 847 25.01 -3.2 26.2 64 -9.1 15.6
10:55 1018 30.06 847 25.01 -3.5 25.7 67 -8.9 16
11:00 1018 30.06 847 25.01 -3.8 25.1 67 -9.1 15.6
11:05 1018 30.06 847 25.01 -3.8 25.2 67 -9.1 15.6
11:10 1017 30.03 847 25.01 -3.4 25.8 66 -8.9 15.9
11:15 1018 30.06 847 25.01 -3.4 25.9 63 -9.5 14.9
11:20 1017 30.03 847 25.01 -3.2 26.3 63 -9.2 15.5
11:25 1018 30.06 847 25.01 -3.3 26 64 -9.2 15.4
11:30 1018 30.06 847 25.01 -3.2 26.3 63 -9.2 15.4
11:35 1018 30.06 847 25.01 -2.7 27.2 62 -9 15.8
11:40 1018 30.06 847 25.01 -2.6 27.3 61 -9 15.7
11:45 1018 30.06 847 25.01 -2.5 27.5 61 -9.1 15.7
11:50 1017 30.03 847 25.01 -2.6 27.3 62 -9 15.8
11:55 1017 30.03 847 25.01 -2.6 27.4 62 -8.9 15.9
12:00 1017 30.03 846 24.98 -2.8 27 62 -9.1 15.7
12:05 1017 30.03 846 24.98 -3 26.5 63 -9.1 15.6
12:10 1017 30.03 846 24.98 -3.1 26.4 63 -9.1 15.5
12:15 1017 30.03 846 24.98 -3.2 26.3 63 -9.2 15.4
12:20 1017 30.03 846 24.98 -3.1 26.5 63 -9.2 15.4
12:25 1017 30.03 846 24.98 -3 26.6 63 -9.2 15.5
12:30 1017 30.03 846 24.98 -3 26.7 62 -9.2 15.5
12:35 1017 30.03 846 24.98 -2.8 27 62 -9.1 15.6
12:40 1017 30.03 846 24.98 -2.7 27.2 63 -8.9 16
12:45 1017 30.03 846 24.98 -2.5 27.4 62 -8.9 16
12:50 1017 30.03 846 24.98 -2.5 27.6 62 -8.8 16.2
12:55 1017 30.03 846 24.98 -2.5 27.5 63 -8.7 16.4
13:00 1017 30.03 846 24.98 -2.4 27.6 65 -8.2 17.2
13:05 1017 30.03 846 24.98 -2.4 27.8 65 -8.2 17.3
13:10 1017 30.03 846 24.98 -2.2 28 64 -8.1 17.5
13:15 1017 30.03 846 24.98 -2 28.4 63 -8.2 17.2
13:20 1017 30.03 846 24.98 -2.1 28.2 63 -8.2 17.2
13:25 1017 30.03 846 24.98 -2 28.4 62 -8.3 17.1
13:30 1017 30.03 846 24.98 -2 28.4 63 -8.2 17.3
13:35 1017 30.03 846 24.98 -1.8 28.8 62 -8.1 17.3
13:40 1017 30.03 846 24.98 -1.9 28.6 63 -8 17.6
13:45 1017 30.03 846 24.98 -1.8 28.7 62 -8.1 17.3
13:50 1017 30.03 846 24.98 -1.6 29.1 62 -8 17.5
13:55 1017 30.03 846 24.98 -1.7 29 63 -7.7 18.1
14:00 1017 30.03 846 24.98 -1.4 29.4 63 -7.6 18.4
14:05 1017 30.03 846 24.98 -1.5 29.4 64 -7.5 18.6
14:10 1017 30.03 846 24.98 -1.3 29.6 63 -7.5 18.6
14:15 1017 30.03 846 24.98 -1 30.1 61 -7.6 18.3
14:20 1017 30.03 846 24.98 -0.9 30.4 61 -7.6 18.4
14:25 1017 30.03 846 24.98 -0.9 30.4 60 -7.7 18.2
14:30 1017 30.03 846 24.98 -1 30.2 61 -7.5 18.5
14:35 1017 30.03 846 24.98 -1 30.3 61 -7.6 18.4
14:40 1017 30.03 846 24.98 -1 30.2 61 -7.6 18.3
14:45 1017 30.03 846 24.98 -1 30.2 61 -7.6 18.4
14:50 1017 30.03 846 24.98 -1.1 30.1 62 -7.5 18.4
14:55 1017 30.03 846 24.98 -1.1 30 62 -7.5 18.5
15:00 1017 30.03 846 24.98 -1.1 30.1 62 -7.5 18.5
15:05 1017 30.03 846 24.98 -1.4 29.6 63 -7.6 18.3
15:10 1017 30.03 846 24.98 -2 28.5 65 -7.8 18
15:15 1017 30.03 846 24.98 -2.1 28.2 65 -7.8 17.9
15:20 1017 30.03 846 24.98 -2.1 28.3 64 -7.9 17.8
15:25 1017 30.03 846 24.98 -1.9 28.6 63 -8.1 17.4
15:30 1017 30.03 846 24.98 -1.8 28.8 64 -7.7 18.2
15:35 1017 30.03 846 24.98 -1.6 29 63 -7.9 17.8
15:40 1017 30.03 846 24.98 -1.7 29 63 -7.8 17.9
15:45 1017 30.03 846 24.98 -1.6 29.2 63 -7.8 18
15:50 1017 30.03 846 24.98 -1.6 29 62 -7.9 17.8
15:55 1017 30.03 846 24.98 -1.6 29.1 62 -7.9 17.8
16:00 1017 30.03 846 24.98 -1.6 29.2 62 -7.9 17.7
16:05 1017 30.03 846 24.98 -1.4 29.4 62 -7.9 17.8
16:10 1017 30.03 846 24.98 -1.4 29.5 61 -8.1 17.5
16:15 1017 30.03 846 24.98 -1.3 29.6 61 -8 17.7
16:20 1017 30.03 846 24.98 -1.3 29.6 63 -7.5 18.5
16:25 1017 30.03 846 24.98 -1.2 29.8 61 -7.8 18
16:30 1017 30.03 846 24.98 -1.1 30.1 63 -7.3 18.9
16:35 1017 30.03 846 24.98 -1.1 30.1 62 -7.4 18.7
16:40 1017 30.03 846 24.98 -1 30.1 62 -7.5 18.5
16:45 1017 30.03 846 24.98 -1.1 30.1 63 -7.2 19
16:50 1017 30.03 846 24.98 -1.2 29.9 63 -7.4 18.7
16:55 1017 30.03 846 24.98 -1.3 29.6 66 -6.9 19.6
17:00 1017 30.03 846 24.98 -1.6 29.2 69 -6.6 20.1
17:05 1017 30.03 846 24.98 -1.8 28.7 72 -6.3 20.7
17:10 1017 30.03 846 24.98 -2.1 28.2 72 -6.4 20.4
17:15 1017 30.03 846 24.98 -2.6 27.3 73 -6.7 19.9
17:20 1017 30.03 846 24.98 -3.2 26.2 74 -7.3 18.9
17:25 1017 30.03 847 25.01 -3.8 25.2 75 -7.7 18.2
17:30 1017 30.03 847 25.01 -4.2 24.5 74 -8.1 17.4
17:35 1017 30.03 847 25.01 -4.6 23.7 74 -8.6 16.5
17:40 1018 30.06 847 25.01 -4.9 23.1 73 -9.1 15.6
17:45 1018 30.06 847 25.01 -5.4 22.3 75 -9.2 15.4
17:50 1018 30.06 847 25.01 -6 21.2 76 -9.5 14.9
17:55 1018 30.06 847 25.01 -6.2 20.9 77 -9.6 14.8
18:00 1018 30.06 847 25.01 -6.1 21.1 76 -9.6 14.7
18:05 1018 30.06 847 25.01 -6.1 21 76 -9.6 14.7
18:10 1018 30.06 847 25.01 -6.4 20.5 76 -9.9 14.2
18:15 1018 30.06 847 25.01 -6.9 19.6 77 -10.3 13.5
18:20 1018 30.06 847 25.01 -6.9 19.6 77 -10.3 13.5
18:25 1018 30.06 847 25.01 -6.7 19.9 78 -9.9 14.1
18:30 1018 30.06 848 25.04 -6.3 20.7 77 -9.7 14.5
18:35 1018 30.06 848 25.04 -6 21.2 77 -9.5 15
18:40 1018 30.06 848 25.04 -5.8 21.6 77 -9.2 15.4
18:45 1019 30.09 848 25.04 -5.6 21.9 77 -9 15.8
18:50 1019 30.09 848 25.04 -5.4 22.2 79 -8.6 16.5
18:55 1019 30.09 848 25.04 -5.2 22.6 79 -8.4 17
19:00 1019 30.09 848 25.04 -5.2 22.6 81 -7.9 17.7
19:05 1019 30.09 848 25.04 -5.2 22.6 82 -7.9 17.8
19:10 1019 30.09 848 25.04 -5.3 22.4 84 -7.7 18.1
19:15 1019 30.09 848 25.04 -5.4 22.3 84 -7.6 18.3
19:20 1019 30.09 848 25.04 -5.3 22.4 85 -7.5 18.5
19:25 1019 30.09 848 25.04 -5.4 22.4 86 -7.4 18.7
19:30 1019 30.09 848 25.04 -5.3 22.5 86 -7.3 18.9
19:35 1019 30.09 848 25.04 -5.3 22.5 87 -7.2 19.1
19:40 1019 30.09 848 25.04 -5.2 22.6 87 -7.1 19.2
19:45 1019 30.09 848 25.04 -5.2 22.6 87 -7 19.3
19:50 1019 30.09 848 25.04 -5.2 22.6 87 -7 19.4
19:55 1019 30.09 848 25.04 -5.2 22.7 87 -7 19.4
20:00 1019 30.09 848 25.04 -5.1 22.8 87 -6.9 19.6
20:05 1019 30.09 848 25.04 -5.1 22.9 87 -6.8 19.7
20:10 1019 30.09 848 25.04 -5 22.9 88 -6.8 19.8
20:15 1019 30.09 848 25.04 -5 23 88 -6.7 19.9
20:20 1019 30.09 848 25.04 -5 23 88 -6.7 20
20:25 1019 30.09 848 25.04 -5 23 88 -6.6 20
20:30 1019 30.09 848 25.04 -5 23 88 -6.7 20
20:35 1019 30.09 848 25.04 -5.1 22.8 89 -6.7 19.9
20:40 1019 30.09 848 25.04 -5.1 22.8 89 -6.7 20
20:45 1019 30.09 848 25.04 -5.1 22.7 89 -6.7 20
20:50 1019 30.09 849 25.07 -5.2 22.7 89 -6.7 20
20:55 1019 30.09 849 25.07 -5.1 22.8 89 -6.6 20.1
21:00 1019 30.09 848 25.04 -5.1 22.8 89 -6.6 20.1
21:05 1019 30.09 849 25.07 -5 22.9 89 -6.5 20.2
21:10 1019 30.09 849 25.07 -5 23 89 -6.5 20.3
21:15 1019 30.09 849 25.07 -5 23 89 -6.6 20.2
21:20 1020 30.12 849 25.07 -5.1 22.9 89 -6.6 20.2
21:25 1020 30.12 849 25.07 -5 22.9 89 -6.6 20.2
21:30 1020 30.12 849 25.07 -5 23 89 -6.5 20.3
21:35 1019 30.09 849 25.07 -5 23 90 -6.5 20.3
21:40 1019 30.09 849 25.07 -4.9 23.1 89 -6.5 20.3
21:45 1020 30.12 849 25.07 -5 23 89 -6.5 20.2
21:50 1020 30.12 849 25.07 -4.9 23.2 89 -6.4 20.4
21:55 1019 30.09 849 25.07 -4.9 23.1 89 -6.5 20.3
22:00 1020 30.12 849 25.07 -5.2 22.6 89 -6.8 19.8
22:05 1020 30.12 849 25.07 -5.4 22.2 89 -6.9 19.5
22:10 1020 30.12 849 25.07 -5.6 21.9 90 -7.1 19.2
22:15 1020 30.12 849 25.07 -5.8 21.6 90 -7.2 19
22:20 1020 30.12 849 25.07 -6.1 21.1 90 -7.4 18.6
22:25 1020 30.12 849 25.07 -6.2 20.9 90 -7.5 18.5
22:30 1020 30.12 849 25.07 -6.2 20.8 91 -7.5 18.6
22:35 1020 30.12 849 25.07 -6.2 20.8 91 -7.5 18.6
22:40 1020 30.12 849 25.07 -6.2 20.8 91 -7.4 18.6
22:45 1020 30.12 849 25.07 -6.2 20.9 92 -7.3 18.8
22:50 1020 30.12 849 25.07 -6 21.1 91 -7.2 19
22:55 1020 30.12 849 25.07 -5.9 21.4 91 -7.1 19.2
23:00 1020 30.12 849 25.07 -5.8 21.6 91 -7 19.3
23:05 1020 30.12 849 25.07 -5.7 21.7 90 -7.1 19.3
23:10 1020 30.12 849 25.07 -5.7 21.7 90 -7.1 19.2
23:15 1020 30.12 850 25.1 -5.7 21.7 90 -7.1 19.1
23:20 1020 30.12 849 25.07 -5.7 21.7 89 -7.2 19
23:25 1020 30.12 850 25.1 -5.7 21.7 89 -7.3 18.9
23:30 1020 30.12 850 25.1 -5.8 21.5 89 -7.3 18.8
23:35 1021 30.15 850 25.1 -5.8 21.5 90 -7.3 18.9
23:40 1021 30.15 850 25.1 -5.8 21.5 89 -7.3 18.8
23:45 1021 30.15 850 25.1 -5.9 21.3 89 -7.4 18.7
23:50 1021 30.15 850 25.1 -6 21.2 90 -7.4 18.6
23:55 1021 30.15 850 25.1 -6 21.3 89 -7.5 18.6
24:00 1021 30.15 850 25.1 -6 21.2 89 -7.6 18.3